Time;durP1;ratioP1;P1;durP2;ratioP2;P2;SDS_P1;SDS_P2;PMS_P1;PMS_P2;Temp;Humidity;BMP_temperature;BMP_pressure;BME280_temperature;BME280_humidity;BME280_pressure;Samples;Min_cycle;Max_cycle;Signal;HPM_P1;HPM_P2
2022/03/31 00:00:42;;;;;;;0.70;0.70;;;7.50;99.90;;;;;;5071694;28;20559;-74
2022/03/31 00:03:11;;;;;;;0.57;0.57;;;7.50;99.90;;;;;;5071754;28;20293;-74
2022/03/31 00:05:37;;;;;;;0.60;0.60;;;7.50;99.90;;;;;;5072120;28;20175;-74
2022/03/31 00:08:15;;;;;;;0.60;0.60;;;7.50;99.90;;;;;;5074351;28;20281;-74
2022/03/31 00:10:50;;;;;;;0.60;0.60;;;7.50;99.90;;;;;;5074265;28;20256;-75
2022/03/31 00:13:19;;;;;;;0.60;0.60;;;7.50;99.90;;;;;;5075936;28;20257;-74
2022/03/31 00:15:45;;;;;;;0.60;0.60;;;7.40;99.90;;;;;;5075932;28;20170;-73
2022/03/31 00:18:12;;;;;;;0.60;0.60;;;7.40;99.90;;;;;;5075996;28;20193;-74
2022/03/31 00:20:37;;;;;;;0.60;0.60;;;7.40;99.90;;;;;;5075361;28;20244;-77
2022/03/31 00:23:05;;;;;;;0.60;0.60;;;7.30;99.90;;;;;;5075690;28;20166;-74
2022/03/31 00:25:31;;;;;;;0.60;0.60;;;7.40;99.90;;;;;;5075679;28;20171;-74
2022/03/31 00:27:57;;;;;;;0.60;0.60;;;7.40;99.90;;;;;;5075590;28;20178;-74
2022/03/31 00:30:23;;;;;;;0.67;0.67;;;7.20;99.90;;;;;;5074974;28;20222;-73
2022/03/31 00:32:48;;;;;;;0.60;0.60;;;7.30;99.90;;;;;;5075898;28;20261;-74
2022/03/31 00:35:14;;;;;;;0.70;0.70;;;7.30;99.90;;;;;;5075749;28;20257;-81
2022/03/31 00:37:44;;;;;;;0.73;0.73;;;7.40;99.90;;;;;;5076027;28;20526;-73
2022/03/31 00:40:11;;;;;;;0.60;0.60;;;7.40;99.90;;;;;;5074927;28;20199;-73
2022/03/31 00:42:42;;;;;;;0.60;0.60;;;7.40;99.90;;;;;;5075422;28;20177;-74
2022/03/31 00:45:15;;;;;;;0.50;0.50;;;7.40;99.90;;;;;;5075620;28;20178;-73
2022/03/31 00:47:41;;;;;;;0.60;0.60;;;7.40;99.90;;;;;;5075068;28;20619;-73
2022/03/31 00:50:07;;;;;;;0.60;0.60;;;7.30;99.90;;;;;;5074696;28;20225;-79
2022/03/31 00:52:33;;;;;;;0.70;0.70;;;7.30;99.90;;;;;;5075069;28;20206;-75
2022/03/31 00:54:59;;;;;;;0.60;0.60;;;7.30;99.90;;;;;;5074968;28;20255;-75
2022/03/31 00:57:25;;;;;;;0.60;0.60;;;7.20;99.90;;;;;;5074753;28;20553;-74
2022/03/31 00:59:50;;;;;;;0.60;0.60;;;7.30;99.90;;;;;;5074636;28;20198;-75
2022/03/31 01:02:16;;;;;;;0.60;0.60;;;7.30;99.90;;;;;;5074618;28;20186;-76
2022/03/31 01:04:42;;;;;;;0.60;0.60;;;7.30;99.90;;;;;;5074642;28;20170;-74
2022/03/31 01:07:07;;;;;;;0.60;0.60;;;7.30;99.90;;;;;;5074681;28;20218;-74
2022/03/31 01:09:33;;;;;;;0.60;0.60;;;7.20;99.90;;;;;;5074111;28;20224;-81
2022/03/31 01:12:00;;;;;;;0.60;0.60;;;7.30;99.90;;;;;;5073987;28;20221;-74
2022/03/31 01:14:26;;;;;;;0.63;0.63;;;7.20;99.90;;;;;;5075209;28;20179;-74
2022/03/31 01:16:51;;;;;;;0.60;0.60;;;7.20;99.90;;;;;;5065947;28;20186;-75
2022/03/31 01:19:17;;;;;;;0.60;0.60;;;7.20;99.90;;;;;;5073798;28;20174;-74
2022/03/31 01:21:45;;;;;;;0.60;0.60;;;7.20;99.90;;;;;;5074811;28;20229;-74
2022/03/31 01:24:14;;;;;;;0.60;0.60;;;7.20;99.90;;;;;;5074782;28;20519;-74
2022/03/31 01:26:41;;;;;;;0.60;0.60;;;7.20;99.90;;;;;;5074551;28;20644;-74
2022/03/31 01:29:09;;;;;;;0.60;0.60;;;7.20;99.90;;;;;;5074512;28;20242;-77
2022/03/31 01:31:36;;;;;;;0.60;0.60;;;7.20;99.90;;;;;;5074841;28;20304;-73
2022/03/31 01:34:02;;;;;;;0.60;0.60;;;7.20;99.90;;;;;;5074881;28;20699;-74
2022/03/31 01:36:27;;;;;;;0.50;0.50;;;7.20;99.90;;;;;;5074790;28;20179;-74
2022/03/31 01:38:55;;;;;;;0.60;0.60;;;7.20;99.90;;;;;;5074609;28;20527;-74
2022/03/31 01:41:21;;;;;;;0.60;0.60;;;7.20;99.90;;;;;;5075251;28;20252;-74
2022/03/31 01:43:47;;;;;;;0.60;0.60;;;7.20;99.90;;;;;;5075519;28;20181;-74
2022/03/31 01:46:13;;;;;;;0.70;0.70;;;7.10;99.90;;;;;;5075156;28;20555;-74
2022/03/31 01:48:38;;;;;;;0.60;0.60;;;7.20;99.90;;;;;;5074635;28;20210;-75
2022/03/31 01:51:04;;;;;;;0.63;0.63;;;7.10;99.90;;;;;;5074152;28;20332;-74
2022/03/31 01:53:32;;;;;;;0.60;0.60;;;7.10;99.90;;;;;;5074295;28;20550;-74
2022/03/31 01:55:58;;;;;;;0.70;0.70;;;7.00;99.90;;;;;;5074462;28;20276;-74
2022/03/31 01:58:24;;;;;;;0.60;0.60;;;7.00;99.90;;;;;;5072878;28;20639;-75
2022/03/31 02:00:50;;;;;;;0.57;0.57;;;7.00;99.90;;;;;;5074190;28;20282;-74
2022/03/31 02:03:16;;;;;;;0.60;0.60;;;7.00;99.90;;;;;;5074287;28;20187;-74
2022/03/31 02:05:42;;;;;;;0.60;0.60;;;7.00;99.90;;;;;;5074084;28;20205;-76
2022/03/31 02:08:07;;;;;;;0.60;0.60;;;6.90;99.90;;;;;;5067942;28;20210;-80
2022/03/31 02:10:33;;;;;;;0.70;0.70;;;6.90;99.90;;;;;;5073288;28;20449;-74
2022/03/31 02:12:59;;;;;;;0.70;0.70;;;6.90;99.90;;;;;;5073789;28;20541;-74
2022/03/31 02:15:25;;;;;;;0.70;0.70;;;6.90;99.90;;;;;;5073637;28;20186;-75
2022/03/31 02:17:52;;;;;;;0.73;0.73;;;7.00;99.90;;;;;;5073592;28;20178;-74
2022/03/31 02:20:18;;;;;;;0.60;0.60;;;6.90;99.90;;;;;;5073424;28;20194;-78
2022/03/31 02:22:43;;;;;;;0.57;0.57;;;6.90;99.90;;;;;;5072999;28;20509;-79
2022/03/31 02:25:10;;;;;;;0.60;0.60;;;7.00;99.90;;;;;;5073513;28;20187;-74
2022/03/31 02:27:36;;;;;;;0.60;0.60;;;7.00;99.90;;;;;;5068639;28;20227;-78
2022/03/31 02:30:04;;;;;;;0.70;0.70;;;7.00;99.90;;;;;;5072688;28;20707;-75
2022/03/31 02:32:30;;;;;;;0.60;0.60;;;7.00;99.90;;;;;;5073241;28;20554;-76
2022/03/31 02:34:56;;;;;;;0.60;0.60;;;7.00;99.90;;;;;;5073010;28;20738;-74
2022/03/31 02:37:22;;;;;;;0.70;0.70;;;6.90;99.90;;;;;;5073016;28;20171;-74
2022/03/31 02:39:47;;;;;;;0.60;0.60;;;6.90;99.90;;;;;;5072809;28;20251;-77
2022/03/31 02:42:14;;;;;;;0.60;0.60;;;6.90;99.90;;;;;;5073235;28;20175;-78
2022/03/31 02:44:40;;;;;;;0.60;0.60;;;7.00;99.90;;;;;;5072879;28;20171;-74
2022/03/31 02:47:06;;;;;;;0.67;0.67;;;7.00;99.90;;;;;;5072852;28;20178;-74
2022/03/31 02:49:31;;;;;;;0.70;0.70;;;6.90;99.90;;;;;;5072077;28;20297;-77
2022/03/31 02:51:58;;;;;;;0.60;0.60;;;7.00;99.90;;;;;;5072415;28;20635;-74
2022/03/31 02:57:08;;;;;;;0.70;0.70;;;6.90;99.90;;;;;;5072742;28;20212;-77
2022/03/31 02:59:33;;;;;;;0.70;0.70;;;6.90;99.90;;;;;;5072173;28;20210;-74
2022/03/31 03:01:59;;;;;;;0.60;0.60;;;6.90;99.90;;;;;;5072514;28;20197;-73
2022/03/31 03:04:25;;;;;;;0.70;0.70;;;6.80;99.90;;;;;;5072528;28;20550;-75
2022/03/31 03:06:51;;;;;;;0.60;0.60;;;6.80;99.90;;;;;;5072190;28;20225;-73
2022/03/31 03:09:16;;;;;;;0.70;0.70;;;6.80;99.90;;;;;;5071724;28;20214;-72
2022/03/31 03:11:42;;;;;;;0.63;0.63;;;6.80;99.90;;;;;;5072058;28;20186;-72
2022/03/31 03:14:11;;;;;;;0.60;0.60;;;6.80;99.90;;;;;;5072245;28;20189;-72
2022/03/31 03:16:38;;;;;;;0.60;0.60;;;6.70;99.90;;;;;;5072162;28;20213;-73
2022/03/31 03:19:03;;;;;;;0.70;0.70;;;6.70;99.90;;;;;;5071557;28;20179;-73
2022/03/31 03:21:29;;;;;;;0.60;0.60;;;6.70;99.90;;;;;;5072241;28;20263;-72
2022/03/31 03:23:54;;;;;;;0.60;0.60;;;6.70;99.90;;;;;;5072292;28;20185;-72
2022/03/31 03:26:20;;;;;;;0.70;0.70;;;6.70;99.90;;;;;;5072178;28;20174;-73
2022/03/31 03:28:46;;;;;;;0.70;0.70;;;6.80;99.90;;;;;;5071887;28;20213;-72
2022/03/31 03:31:12;;;;;;;0.70;0.70;;;6.70;99.90;;;;;;5071631;28;20198;-71
2022/03/31 03:33:38;;;;;;;0.60;0.60;;;6.70;99.90;;;;;;5072356;28;20174;-72
2022/03/31 03:36:06;;;;;;;0.60;0.60;;;6.70;99.90;;;;;;5072898;28;20182;-72
2022/03/31 03:38:32;;;;;;;0.60;0.60;;;6.70;99.90;;;;;;5072891;28;20344;-71
2022/03/31 03:40:57;;;;;;;0.63;0.63;;;6.70;99.90;;;;;;5072028;28;20205;-72
2022/03/31 03:43:23;;;;;;;0.70;0.70;;;6.70;99.90;;;;;;5072097;28;20572;-71
2022/03/31 03:45:49;;;;;;;0.70;0.70;;;6.60;99.90;;;;;;5071761;28;20210;-71
2022/03/31 03:48:14;;;;;;;0.60;0.60;;;6.60;99.90;;;;;;5071661;28;20182;-72
2022/03/31 03:50:40;;;;;;;0.80;0.80;;;6.60;99.90;;;;;;5071319;28;20698;-71
2022/03/31 03:53:07;;;;;;;0.60;0.60;;;6.60;99.90;;;;;;5071739;28;20170;-72
2022/03/31 03:55:34;;;;;;;0.60;0.60;;;6.60;99.90;;;;;;5071809;28;20178;-72
2022/03/31 03:58:00;;;;;;;0.70;0.70;;;6.50;99.90;;;;;;5071602;28;20206;-71
2022/03/31 04:00:26;;;;;;;0.80;0.80;;;6.50;99.90;;;;;;5070922;28;20206;-73
2022/03/31 04:02:52;;;;;;;0.60;0.60;;;6.60;99.90;;;;;;5071465;28;20627;-72
2022/03/31 04:05:18;;;;;;;0.70;0.70;;;6.50;99.90;;;;;;5071729;28;20177;-72
2022/03/31 04:07:43;;;;;;;0.70;0.70;;;6.40;99.90;;;;;;5071994;28;20189;-71
2022/03/31 04:10:10;;;;;;;0.60;0.60;;;6.40;99.90;;;;;;5070070;28;20221;-72
2022/03/31 04:12:36;;;;;;;0.67;0.67;;;6.40;99.90;;;;;;5051617;28;20182;-71
2022/03/31 04:15:04;;;;;;;0.60;0.60;;;6.40;99.90;;;;;;5051304;28;20666;-72
2022/03/31 04:17:30;;;;;;;0.60;0.60;;;6.40;99.90;;;;;;5052163;28;20559;-72
2022/03/31 04:19:56;;;;;;;0.70;0.70;;;6.30;99.90;;;;;;5064689;28;20683;-73
2022/03/31 04:22:21;;;;;;;0.70;0.70;;;6.40;99.90;;;;;;5062090;28;20540;-72
2022/03/31 04:24:47;;;;;;;0.70;0.70;;;6.40;99.90;;;;;;5070015;28;20171;-72
2022/03/31 04:27:13;;;;;;;0.70;0.70;;;6.40;99.90;;;;;;5063803;28;20270;-72
2022/03/31 04:29:38;;;;;;;0.60;0.60;;;6.30;99.90;;;;;;5064008;28;20211;-72
2022/03/31 04:32:04;;;;;;;0.60;0.60;;;6.30;99.90;;;;;;5069086;28;20243;-72
2022/03/31 04:34:30;;;;;;;0.70;0.70;;;6.30;99.90;;;;;;5064117;28;20230;-72
2022/03/31 04:36:55;;;;;;;0.70;0.70;;;6.40;99.90;;;;;;5066378;28;20183;-72
2022/03/31 04:39:21;;;;;;;0.60;0.60;;;6.30;99.90;;;;;;5059121;28;20182;-72
2022/03/31 04:41:46;;;;;;;0.60;0.60;;;6.30;99.90;;;;;;5055528;28;20270;-72
2022/03/31 04:44:12;;;;;;;0.80;0.80;;;6.30;99.90;;;;;;5053025;28;20547;-71
2022/03/31 04:46:37;;;;;;;0.70;0.70;;;6.30;99.90;;;;;;5065088;28;20620;-72
2022/03/31 04:49:03;;;;;;;0.63;0.63;;;6.30;99.90;;;;;;5059781;28;20230;-72
2022/03/31 04:51:29;;;;;;;0.60;0.60;;;6.40;99.90;;;;;;5057903;28;20581;-72
2022/03/31 04:53:55;;;;;;;0.60;0.60;;;6.30;99.90;;;;;;5067967;28;20175;-73
2022/03/31 04:56:20;;;;;;;0.63;0.63;;;6.30;99.90;;;;;;5057736;28;20228;-72
2022/03/31 04:58:46;;;;;;;0.60;0.60;;;6.30;99.90;;;;;;5067431;28;20210;-74
2022/03/31 05:01:12;;;;;;;0.63;0.63;;;6.20;99.90;;;;;;5064223;28;20189;-72
2022/03/31 05:03:40;;;;;;;0.70;0.70;;;6.20;99.90;;;;;;5060431;28;20644;-73
2022/03/31 05:06:07;;;;;;;0.73;0.73;;;6.00;99.90;;;;;;5070564;28;20651;-72
2022/03/31 05:08:33;;;;;;;0.70;0.70;;;5.90;99.90;;;;;;5058465;28;20167;-71
2022/03/31 05:10:58;;;;;;;0.70;0.70;;;6.00;99.90;;;;;;5071975;28;20202;-72
2022/03/31 05:13:24;;;;;;;0.70;0.70;;;5.90;99.90;;;;;;5061852;28;20245;-74
2022/03/31 05:15:50;;;;;;;0.70;0.70;;;5.80;99.90;;;;;;5065006;28;20179;-72
2022/03/31 05:18:16;;;;;;;0.70;0.70;;;5.80;99.90;;;;;;5066702;28;20275;-73
2022/03/31 05:20:43;;;;;;;0.67;0.67;;;5.80;99.90;;;;;;5053533;28;20277;-72
2022/03/31 05:23:09;;;;;;;0.67;0.67;;;5.80;99.90;;;;;;5064036;28;20178;-72
2022/03/31 05:25:35;;;;;;;0.70;0.70;;;5.80;99.90;;;;;;5060167;28;20210;-72
2022/03/31 05:28:00;;;;;;;0.67;0.67;;;5.80;99.90;;;;;;5069691;28;20218;-72
2022/03/31 05:30:26;;;;;;;0.70;0.70;;;5.80;99.90;;;;;;5068655;28;20210;-72
2022/03/31 05:32:53;;;;;;;0.70;0.70;;;5.90;99.90;;;;;;5053752;28;20233;-72
2022/03/31 05:35:19;;;;;;;0.80;0.80;;;5.80;99.90;;;;;;5063224;28;20229;-73
2022/03/31 05:37:45;;;;;;;0.70;0.70;;;5.80;99.90;;;;;;5073519;28;20177;-73
2022/03/31 05:40:12;;;;;;;0.70;0.70;;;5.80;99.90;;;;;;5054434;28;20195;-73
2022/03/31 05:42:38;;;;;;;0.70;0.70;;;5.90;99.90;;;;;;5059321;28;20507;-73
2022/03/31 05:45:05;;;;;;;0.70;0.70;;;5.90;99.90;;;;;;5064025;28;20190;-72
2022/03/31 05:47:31;;;;;;;0.70;0.70;;;5.80;99.90;;;;;;5066588;28;20257;-72
2022/03/31 05:49:56;;;;;;;0.70;0.70;;;6.00;99.90;;;;;;5056341;28;20297;-72
2022/03/31 05:52:23;;;;;;;0.60;0.60;;;5.90;99.90;;;;;;5070030;28;20679;-72
2022/03/31 05:54:49;;;;;;;0.70;0.70;;;5.90;99.90;;;;;;5060629;28;20175;-73
2022/03/31 05:57:15;;;;;;;0.70;0.70;;;5.90;99.90;;;;;;5062404;28;20171;-73
2022/03/31 05:59:42;;;;;;;0.60;0.60;;;5.80;99.90;;;;;;5067095;28;20367;-73
2022/03/31 06:02:08;;;;;;;0.50;0.50;;;6.00;99.90;;;;;;5061026;28;20441;-74
2022/03/31 06:04:34;;;;;;;0.80;0.80;;;5.90;99.90;;;;;;5072203;28;20178;-72
2022/03/31 06:06:59;;;;;;;0.60;0.60;;;5.90;99.90;;;;;;5059948;28;20195;-72
2022/03/31 06:09:25;;;;;;;0.80;0.80;;;5.90;99.90;;;;;;5052454;28;20207;-73
2022/03/31 06:11:50;;;;;;;0.60;0.60;;;6.00;99.90;;;;;;5069270;28;20687;-73
2022/03/31 06:14:16;;;;;;;0.63;0.63;;;6.00;99.90;;;;;;5059776;28;20547;-73
2022/03/31 06:16:41;;;;;;;0.80;0.80;;;6.00;99.90;;;;;;5069211;28;20187;-73
2022/03/31 06:19:10;;;;;;;0.70;0.70;;;5.90;99.90;;;;;;5066633;28;20202;-74
2022/03/31 06:21:36;;;;;;;0.70;0.70;;;5.90;99.90;;;;;;5064018;28;20197;-75
2022/03/31 06:24:03;;;;;;;0.70;0.70;;;6.00;99.90;;;;;;5063992;28;20186;-73
2022/03/31 06:26:29;;;;;;;0.70;0.70;;;6.00;99.90;;;;;;5063360;28;20179;-72
2022/03/31 06:28:55;;;;;;;0.70;0.70;;;5.90;99.90;;;;;;5063752;28;20217;-72
2022/03/31 06:31:24;;;;;;;0.70;0.70;;;5.90;99.90;;;;;;5062794;28;20617;-73
2022/03/31 06:33:50;;;;;;;0.67;0.67;;;5.90;99.90;;;;;;5074190;28;20184;-72
2022/03/31 06:36:16;;;;;;;0.70;0.70;;;5.90;99.90;;;;;;5074099;28;20179;-72
2022/03/31 06:38:42;;;;;;;0.70;0.70;;;5.90;99.90;;;;;;5071700;28;20228;-71
2022/03/31 06:41:10;;;;;;;0.60;0.60;;;5.90;99.90;;;;;;5071992;28;20285;-73
2022/03/31 06:43:41;;;;;;;0.70;0.70;;;6.00;99.90;;;;;;5072711;28;20236;-72
2022/03/31 06:46:07;;;;;;;0.70;0.70;;;6.00;99.90;;;;;;5071920;28;20675;-78
2022/03/31 06:48:32;;;;;;;0.50;0.50;;;6.20;99.90;;;;;;5071913;28;20406;-71
2022/03/31 06:50:59;;;;;;;0.60;0.60;;;6.20;99.90;;;;;;5067488;28;20230;-72
2022/03/31 06:53:25;;;;;;;0.60;0.60;;;6.20;99.90;;;;;;5054981;28;20213;-71
2022/03/31 06:55:51;;;;;;;0.63;0.63;;;6.30;99.90;;;;;;5052304;28;20594;-71
2022/03/31 06:58:17;;;;;;;0.70;0.70;;;6.30;99.90;;;;;;5052361;28;20179;-71
2022/03/31 07:00:43;;;;;;;0.60;0.60;;;6.30;99.90;;;;;;5052023;28;20198;-71
2022/03/31 07:03:09;;;;;;;0.70;0.70;;;6.60;99.90;;;;;;5052314;28;20644;-72
2022/03/31 07:05:38;;;;;;;0.70;0.70;;;6.50;99.90;;;;;;5052262;28;20209;-72
2022/03/31 07:08:06;;;;;;;0.70;0.70;;;6.80;99.90;;;;;;5052013;28;20187;-72
2022/03/31 07:10:33;;;;;;;0.70;0.70;;;6.70;99.90;;;;;;5051469;28;20215;-71
2022/03/31 07:13:00;;;;;;;0.70;0.70;;;6.70;99.90;;;;;;5054109;28;20400;-71
2022/03/31 07:15:26;;;;;;;0.60;0.60;;;6.80;99.90;;;;;;5052568;28;20175;-71
2022/03/31 07:17:54;;;;;;;0.70;0.70;;;6.80;99.90;;;;;;5051391;28;20179;-72
2022/03/31 07:20:21;;;;;;;0.70;0.70;;;6.90;99.90;;;;;;5051539;28;20203;-72
2022/03/31 07:22:47;;;;;;;0.70;0.70;;;7.10;99.90;;;;;;5051699;28;20244;-72
2022/03/31 07:25:14;;;;;;;0.60;0.60;;;7.30;99.90;;;;;;5052094;28;20224;-72
2022/03/31 07:27:40;;;;;;;0.70;0.70;;;7.30;95.40;;;;;;5052318;28;20185;-71
2022/03/31 07:30:07;;;;;;;0.60;0.60;;;7.10;99.90;;;;;;5051304;28;20226;-71
2022/03/31 07:32:33;;;;;;;0.60;0.60;;;7.00;99.90;;;;;;5051888;28;20171;-71
2022/03/31 07:34:59;;;;;;;0.60;0.60;;;7.10;99.90;;;;;;5051828;28;20209;-71
2022/03/31 07:37:25;;;;;;;0.70;0.70;;;7.20;99.90;;;;;;5051827;28;20550;-71
2022/03/31 07:39:51;;;;;;;0.60;0.60;;;7.40;1.80;;;;;;5051056;28;20199;-72
2022/03/31 07:42:16;;;;;;;0.70;0.70;;;7.40;99.90;;;;;;5051971;28;20195;-71
2022/03/31 07:44:42;;;;;;;0.70;0.70;;;7.60;30.20;;;;;;5051871;28;20648;-71
2022/03/31 07:47:09;;;;;;;0.70;0.70;;;7.50;62.90;;;;;;5051658;28;20178;-71
2022/03/31 07:49:34;;;;;;;0.60;0.60;;;7.60;1.00;;;;;;5051029;28;20250;-71
2022/03/31 07:52:00;;;;;;;0.70;0.70;;;7.60;1.00;;;;;;5051055;28;20206;-71
2022/03/31 07:54:25;;;;;;;0.70;0.70;;;7.40;34.50;;;;;;5051723;28;20187;-71
2022/03/31 07:56:52;;;;;;;0.70;0.70;;;7.50;40.70;;;;;;5051506;28;20175;-72
2022/03/31 07:59:25;;;;;;;0.60;0.60;;;7.40;99.90;;;;;;5053328;28;20190;-71
2022/03/31 08:01:51;;;;;;;0.70;0.70;;;7.50;59.80;;;;;;5051478;28;20179;-72
2022/03/31 08:04:16;;;;;;;0.60;0.60;;;7.60;11.60;;;;;;5056501;28;20643;-71
2022/03/31 08:06:43;;;;;;;0.70;0.70;;;7.50;47.20;;;;;;5060802;28;20197;-72
2022/03/31 08:09:13;;;;;;;0.70;0.70;;;7.50;18.20;;;;;;5059716;28;20210;-72
2022/03/31 08:11:39;;;;;;;0.60;0.60;;;7.70;1.00;;;;;;5060370;28;20198;-72
2022/03/31 08:14:05;;;;;;;0.77;0.77;;;7.50;21.20;;;;;;5062550;28;20178;-72
2022/03/31 08:16:31;;;;;;;0.70;0.70;;;7.50;21.90;;;;;;5071425;28;20552;-72
2022/03/31 08:18:57;;;;;;;0.70;0.70;;;7.60;10.20;;;;;;5070731;28;20179;-72
2022/03/31 08:21:23;;;;;;;0.70;0.70;;;7.80;1.00;;;;;;5071301;28;20251;-71
2022/03/31 08:23:48;;;;;;;0.60;0.60;;;8.00;1.00;;;;;;5071450;28;20644;-73
2022/03/31 08:26:14;;;;;;;0.60;0.60;;;7.90;1.00;;;;;;5071343;28;20175;-73
2022/03/31 08:28:40;;;;;;;0.60;0.60;;;7.70;12.20;;;;;;5073243;28;20581;-73
2022/03/31 08:31:06;;;;;;;0.70;0.70;;;7.70;39.20;;;;;;5074724;28;20205;-72
2022/03/31 08:33:31;;;;;;;0.60;0.60;;;7.70;1.00;;;;;;5075245;28;20174;-72
2022/03/31 08:35:57;;;;;;;0.60;0.60;;;7.60;22.10;;;;;;5075486;28;20189;-70
2022/03/31 08:38:22;;;;;;;0.60;0.60;;;7.60;68.30;;;;;;5075446;28;20174;-71
2022/03/31 08:40:48;;;;;;;0.70;0.70;;;7.60;61.10;;;;;;5075117;28;20195;-71
2022/03/31 08:43:14;;;;;;;0.60;0.60;;;7.70;54.80;;;;;;5075662;28;20253;-71
2022/03/31 08:45:41;;;;;;;0.60;0.60;;;7.80;1.00;;;;;;5075501;28;20181;-71
2022/03/31 08:48:08;;;;;;;0.60;0.60;;;7.80;4.60;;;;;;5075242;28;20261;-71
2022/03/31 08:50:35;;;;;;;0.60;0.60;;;7.90;8.50;;;;;;5074521;28;20305;-73
2022/03/31 08:53:01;;;;;;;0.50;0.50;;;7.90;1.00;;;;;;5074612;28;20588;-71
2022/03/31 08:55:26;;;;;;;0.70;0.70;;;7.70;40.00;;;;;;5074980;28;20174;-71
2022/03/31 08:57:54;;;;;;;0.60;0.60;;;7.60;63.00;;;;;;5076595;28;20243;-71
2022/03/31 09:00:21;;;;;;;0.63;0.63;;;7.80;33.20;;;;;;5074015;28;20206;-72
2022/03/31 09:03:04;;;;;;;0.60;0.60;;;7.80;1.00;;;;;;5074580;28;20662;-71
2022/03/31 09:05:52;;;;;;;0.70;0.70;;;8.00;1.00;;;;;;5074854;28;20617;-71
2022/03/31 09:08:18;;;;;;;0.60;0.60;;;8.20;1.00;;;;;;5074409;28;20728;-71
2022/03/31 09:10:49;;;;;;;0.60;0.60;;;7.90;1.00;;;;;;5073610;28;20242;-71
2022/03/31 09:13:28;;;;;;;0.70;0.70;;;7.90;1.00;;;;;;5074303;28;20543;-72
2022/03/31 09:16:01;;;;;;;0.60;0.60;;;8.00;1.00;;;;;;5074578;28;20193;-72
2022/03/31 09:18:28;;;;;;;0.67;0.67;;;8.00;1.00;;;;;;5074548;28;20195;-71
2022/03/31 09:20:57;;;;;;;0.67;0.67;;;8.20;1.00;;;;;;5073817;28;20198;-71
2022/03/31 09:23:28;;;;;;;0.60;0.60;;;8.10;1.00;;;;;;5074526;28;20171;-71
2022/03/31 09:26:06;;;;;;;0.60;0.60;;;8.30;1.00;;;;;;5060424;28;20224;-71
2022/03/31 09:28:32;;;;;;;0.63;0.63;;;8.40;1.00;;;;;;5053878;28;20647;-72
2022/03/31 09:30:57;;;;;;;0.70;0.70;;;8.40;1.00;;;;;;5055126;28;20207;-71
2022/03/31 09:33:30;;;;;;;0.60;0.60;;;8.60;1.00;;;;;;5063304;28;20278;-71
2022/03/31 09:36:04;;;;;;;0.60;0.60;;;8.80;1.00;;;;;;5062939;28;20205;-72
2022/03/31 09:38:32;;;;;;;0.60;0.60;;;8.90;1.00;;;;;;5062610;28;20195;-71
2022/03/31 09:40:58;;;;;;;0.67;0.67;;;9.10;99.90;;;;;;5062616;28;20197;-71
2022/03/31 09:43:23;;;;;;;0.50;0.50;;;9.20;99.90;;;;;;5064080;28;20227;-71
2022/03/31 09:45:49;;;;;;;0.57;0.57;;;9.40;1.00;;;;;;5062388;28;20209;-72
2022/03/31 09:48:20;;;;;;;0.70;0.70;;;9.50;1.00;;;;;;5064160;28;20175;-71
2022/03/31 09:50:46;;;;;;;0.60;0.60;;;9.70;1.00;;;;;;5063305;28;20214;-71
2022/03/31 09:53:13;;;;;;;0.50;0.50;;;10.00;1.00;;;;;;5062324;28;20249;-72
2022/03/31 09:55:40;;;;;;;0.50;0.50;;;10.10;99.90;;;;;;5063392;28;20257;-72
2022/03/31 09:58:08;;;;;;;0.50;0.50;;;10.30;99.90;;;;;;5064059;28;20187;-71
2022/03/31 10:00:34;;;;;;;0.63;0.63;;;10.30;99.90;;;;;;5064298;28;20292;-70
2022/03/31 10:03:01;;;;;;;0.50;0.50;;;10.30;1.00;;;;;;5073507;28;20167;-72
2022/03/31 10:05:27;;;;;;;0.53;0.53;;;10.20;1.00;;;;;;5073215;28;20266;-72
2022/03/31 10:07:54;;;;;;;0.47;0.47;;;10.10;1.00;;;;;;5112217;22;20226;-80
2022/03/31 10:10:20;;;;;;;0.50;0.50;;;10.20;99.90;;;;;;5077540;28;20695;-80
2022/03/31 10:13:03;;;;;;;0.60;0.60;;;10.00;1.00;;;;;;5078142;28;20182;-79
2022/03/31 10:15:35;;;;;;;0.50;0.50;;;10.00;99.90;;;;;;5078960;28;20273;-78
2022/03/31 10:18:01;;;;;;;0.60;0.60;;;10.00;1.00;;;;;;5080984;28;20538;-80
2022/03/31 10:20:27;;;;;;;0.50;0.50;;;10.10;1.00;;;;;;5062664;28;20313;-79
2022/03/31 10:25:45;;;;;;;0.60;0.60;;;10.30;1.00;;;;;;5073511;28;20193;-79
2022/03/31 10:28:20;;;;;;;0.60;0.60;;;10.50;1.00;;;;;;5073588;28;20178;-77
2022/03/31 10:30:59;;;;;;;0.60;0.60;;;10.20;1.00;;;;;;5073525;28;20229;-77
2022/03/31 10:33:37;;;;;;;0.60;0.60;;;9.90;1.00;;;;;;5074330;28;20601;-77
2022/03/31 10:36:09;;;;;;;0.57;0.57;;;10.30;72.30;;;;;;5074426;28;20591;-79
2022/03/31 10:38:35;;;;;;;0.50;0.50;;;10.40;99.90;;;;;;5074325;28;20244;-78
2022/03/31 10:41:12;;;;;;;0.60;0.60;;;10.20;99.90;;;;;;5072543;28;20205;-78
2022/03/31 10:43:46;;;;;;;0.60;0.60;;;10.50;24.80;;;;;;5075089;28;20190;-77
2022/03/31 10:46:17;;;;;;;0.50;0.50;;;10.80;1.00;;;;;;5075476;28;20270;-78
2022/03/31 10:48:51;;;;;;;0.53;0.53;;;10.70;1.00;;;;;;5060403;28;20265;-77
2022/03/31 10:51:17;;;;;;;0.60;0.60;;;10.80;1.00;;;;;;5073717;28;20218;-78
2022/03/31 10:53:49;;;;;;;0.57;0.57;;;10.90;1.00;;;;;;5074640;28;20181;-78
2022/03/31 10:56:26;;;;;;;0.50;0.50;;;11.10;1.00;;;;;;5073836;28;20259;-78
2022/03/31 10:58:57;;;;;;;0.40;0.40;;;11.00;24.90;;;;;;5073589;28;20192;-78
2022/03/31 11:01:26;;;;;;;0.50;0.50;;;11.20;91.90;;;;;;5073363;28;20214;-79
2022/03/31 11:03:58;;;;;;;0.40;0.40;;;11.20;58.50;;;;;;5073637;28;20190;-78
2022/03/31 11:06:24;;;;;;;0.60;0.60;;;11.20;1.00;;;;;;5074190;28;20178;-79
2022/03/31 11:08:50;;;;;;;0.43;0.43;;;11.00;99.90;;;;;;5073794;28;20171;-78
2022/03/31 11:11:24;;;;;;;0.50;0.50;;;10.90;1.00;;;;;;5072759;28;20232;-78
2022/03/31 11:13:51;;;;;;;0.50;0.50;;;11.10;1.00;;;;;;5059734;28;20179;-80
2022/03/31 11:16:17;;;;;;;0.50;0.50;;;10.90;1.00;;;;;;5077146;28;20220;-79
2022/03/31 11:18:55;;;;;;;0.50;0.50;;;10.80;1.00;;;;;;5076371;28;20584;-78
2022/03/31 11:21:21;;;;;;;0.57;0.57;;;10.80;1.00;;;;;;5075038;28;20547;-79
2022/03/31 11:23:48;;;;;;;0.50;0.50;;;10.60;99.90;;;;;;5072477;28;20631;-78
2022/03/31 11:26:26;;;;;;;0.60;0.60;;;10.70;1.00;;;;;;5063412;28;20270;-78
2022/03/31 11:28:51;;;;;;;0.50;0.50;;;10.90;99.90;;;;;;5068114;28;20193;-82
2022/03/31 11:31:17;;;;;;;0.50;0.50;;;11.00;1.00;;;;;;5071875;28;20210;-80
2022/03/31 11:33:44;;;;;;;0.50;0.50;;;11.30;99.90;;;;;;5071994;28;20170;-77
2022/03/31 11:36:10;;;;;;;0.50;0.50;;;11.40;1.00;;;;;;5057885;28;20548;-78
2022/03/31 11:38:35;;;;;;;0.60;0.60;;;11.70;1.00;;;;;;5072266;28;20201;-79
2022/03/31 11:41:01;;;;;;;0.50;0.50;;;11.40;1.00;;;;;;5071855;28;20194;-78
2022/03/31 11:43:27;;;;;;;0.50;0.50;;;11.10;1.00;;;;;;5072091;28;20214;-78
2022/03/31 11:45:55;;;;;;;0.50;0.50;;;11.10;1.00;;;;;;5072174;28;20182;-78
2022/03/31 11:48:23;;;;;;;0.50;0.50;;;11.40;1.00;;;;;;5072184;28;20198;-79
2022/03/31 11:50:58;;;;;;;0.50;0.50;;;11.60;1.00;;;;;;5071548;28;20218;-78
2022/03/31 11:53:36;;;;;;;0.50;0.50;;;11.80;1.00;;;;;;5071941;28;20165;-79
2022/03/31 11:56:22;;;;;;;0.40;0.40;;;12.30;99.90;;;;;;5072121;28;20247;-78
2022/03/31 11:58:50;;;;;;;0.50;0.50;;;12.90;31.00;;;;;;5072230;28;20388;-78
2022/03/31 12:01:22;;;;;;;0.50;0.50;;;13.00;1.00;;;;;;5071182;28;20205;-80
2022/03/31 12:03:48;;;;;;;0.50;0.50;;;13.00;1.00;;;;;;5071538;28;20182;-79
2022/03/31 12:06:14;;;;;;;0.57;0.57;;;12.90;1.00;;;;;;5071504;28;20182;-78
2022/03/31 12:08:40;;;;;;;0.40;0.40;;;12.80;1.00;;;;;;5071701;28;20674;-78
2022/03/31 12:11:08;;;;;;;0.50;0.50;;;13.10;1.00;;;;;;5070852;28;20285;-79
2022/03/31 12:13:53;;;;;;;0.40;0.40;;;13.20;1.00;;;;;;5071074;28;20185;-79
2022/03/31 12:16:20;;;;;;;0.40;0.40;;;12.80;99.90;;;;;;5066760;28;20193;-80
2022/03/31 12:18:53;;;;;;;0.50;0.50;;;12.60;1.00;;;;;;5061851;28;20182;-78
2022/03/31 12:21:19;;;;;;;0.40;0.40;;;12.40;99.90;;;;;;5071351;28;20210;-79
2022/03/31 12:23:46;;;;;;;0.30;0.30;;;12.50;99.90;;;;;;5071589;28;20178;-79
2022/03/31 12:26:21;;;;;;;0.50;0.50;;;12.30;1.00;;;;;;5071980;28;20251;-81
2022/03/31 12:28:48;;;;;;;0.50;0.50;;;12.20;99.90;;;;;;5071096;28;20201;-78
2022/03/31 12:31:33;;;;;;;0.50;0.50;;;12.30;99.90;;;;;;5070369;28;20198;-77
2022/03/31 12:33:59;;;;;;;0.40;0.40;;;12.00;99.90;;;;;;5071339;28;20189;-79
2022/03/31 12:36:33;;;;;;;0.40;0.40;;;11.90;1.00;;;;;;5071635;28;20253;-78
2022/03/31 12:39:03;;;;;;;0.50;0.50;;;11.90;99.90;;;;;;5070479;28;20186;-79
2022/03/31 12:41:34;;;;;;;0.60;0.60;;;11.90;1.00;;;;;;5070760;28;20206;-78
2022/03/31 12:44:12;;;;;;;0.50;0.50;;;11.90;1.00;;;;;;5070339;28;20185;-77
2022/03/31 12:46:42;;;;;;;0.50;0.50;;;12.00;99.90;;;;;;5070565;28;20273;-79
2022/03/31 12:49:13;;;;;;;0.50;0.50;;;12.00;1.00;;;;;;5073827;28;20690;-77
2022/03/31 12:51:57;;;;;;;0.57;0.57;;;11.70;1.00;;;;;;5071771;28;20194;-76
2022/03/31 12:54:32;;;;;;;0.60;0.60;;;11.80;99.90;;;;;;5070801;28;20793;-77
2022/03/31 12:57:05;;;;;;;0.60;0.60;;;11.50;99.90;;;;;;5070830;28;20227;-77
2022/03/31 12:59:33;;;;;;;0.60;0.60;;;11.50;1.00;;;;;;5057325;28;20190;-77
2022/03/31 13:02:06;;;;;;;0.60;0.60;;;11.70;99.90;;;;;;5053826;28;20183;-78
2022/03/31 13:04:32;;;;;;;0.50;0.50;;;11.80;99.90;;;;;;5064726;28;20238;-76